Latest Weather Observations for Richmond

IDN60801

Issued at 8:32 am EST Sunday 23 July 2017 (issued every 30 minutes, with the page automatically refreshed every 10 minutes)

About weather observations | Map of weather stations | Latest weather observations for NSW | Other Formats
Station Details ID: 067105 Name: RICHMOND RAAF Lat: -33.60 Lon: 150.78 Height: 19.0 m
Data from the previous 72 hours. | See also: Recent months at Richmond
Date/Time
EST
Temp
°C
App
Temp
°C
Dew
Point
°C
Rel
Hum
%
Delta-T
°C
Wind Press
QNH
hPa
Press
MSL
hPa
Rain since
9am
mm
Dir  Spd
km/h
Gust
km/h
Spd
kts
Gust
kts
23/08:30am 3.8 1.9 2.8 93 0.4 SW 2 7 1 4 1018.2 1018.2 0.0
23/08:00am 2.5 0.8 2.1 97 0.2 CALM 0 0 0 0 1017.9 1017.9 0.0
23/07:30am 0.1 -3.1 -0.2 98 0.1 NNE 6 9 3 5 1017.7 1017.7 0.0
23/07:00am -1.6 -3.9 -2.3 95 0.2 CALM 0 0 0 0 1017.9 1017.9 0.0
23/06:30am -0.7 -2.8 -1.1 97 0.1 CALM 0 0 0 0 1017.5 1017.5 0.0
23/06:00am -0.6 -2.7 -0.9 98 0.1 CALM 0 0 0 0 1017.4 1017.4 0.0
23/05:30am -0.7 -2.8 -1.0 98 0.1 CALM 0 0 0 0 1017.5 1017.5 0.0
23/05:00am -1.1 -4.4 -1.4 98 0.1 WSW 6 7 3 4 1017.2 1017.2 0.0
23/04:30am -0.7 -2.8 -1.0 98 0.1 CALM 0 0 0 0 1017.0 1017.0 0.0
23/04:00am -1.0 -3.5 -1.3 98 0.1 WSW 2 9 1 5 1017.0 1017.0 0.0
23/03:30am -0.3 -3.1 -0.6 98 0.1 SW 4 9 2 5 1017.0 1017.0 0.0
23/03:00am -0.1 -2.1 -0.4 98 0.1 CALM 0 6 0 3 1017.2 1017.2 0.0
23/02:30am -0.6 -3.5 -1.2 96 0.2 W 4 9 2 5 1017.3 1017.3 0.0
23/02:00am -0.3 -2.4 -1.1 94 0.3 CALM 0 0 0 0 1017.7 1017.7 0.0
23/01:30am 0.3 -2.9 -0.5 94 0.3 NNW 6 9 3 5 1018.0 1018.0 0.0
23/01:00am 0.8 -2.3 -0.1 94 0.3 SSW 6 9 3 5 1018.2 1018.2 0.0
23/12:30am 1.5 -1.2 0.2 91 0.5 WNW 4 9 2 5 1018.3 1018.3 0.0
23/12:00am 1.4 -1.2 0.8 96 0.2 SSE 4 9 2 5 1018.5 1018.5 0.0
 
Date/Time
EST
Temp
°C
App
Temp
°C
Dew
Point
°C
Rel
Hum
%
Delta-T
°C
Wind Press
QNH
hPa
Press
MSL
hPa
Rain since
9am
mm
Dir  Spd
km/h
Gust
km/h
Spd
kts
Gust
kts
22/11:30pm 2.8 0.8 2.1 95 0.3 NE 2 7 1 4 1018.5 1018.5 0.0
22/11:00pm 2.5 0.1 1.9 96 0.2 SSE 4 9 2 5 1018.6 1018.6 0.0
22/10:30pm 3.0 0.0 0.9 86 0.8 ENE 6 9 3 5 1018.8 1018.8 0.0
22/10:00pm 3.4 0.4 1.0 84 0.9 ENE 6 9 3 5 1019.0 1019.0 0.0
22/09:30pm 5.1 3.5 2.3 82 1.1 CALM 0 0 0 0 1018.9 1018.9 0.0
22/09:00pm 4.7 2.9 1.2 78 1.4 CALM 0 0 0 0 1019.1 1019.1 0.0
22/08:30pm 5.3 3.2 1.8 78 1.4 N 2 6 1 3 1019.1 1019.1 0.0
22/08:00pm 7.0 3.9 1.5 68 2.2 NW 7 9 4 5 1019.1 1019.1 0.0
22/07:30pm 7.8 5.9 2.9 71 2.1 NW 2 6 1 3 1019.3 1019.3 0.0
22/07:00pm 8.8 5.3 3.4 69 2.3 W 11 11 6 6 1019.2 1019.2 0.0
22/06:30pm 10.4 6.9 3.4 62 3.1 W 11 13 6 7 1019.1 1019.1 0.0
22/06:00pm 12.6 8.7 3.6 54 4.0 SW 13 17 7 9 1018.9 1018.9 0.0
22/05:30pm 14.0 9.8 1.6 43 5.4 NNW 13 15 7 8 1018.4 1018.4 0.0
22/05:00pm 16.6 13.0 0.3 33 7.0 NW 9 11 5 6 1018.4 1018.4 0.0
22/04:30pm 17.5 14.9 3.0 38 6.7 NNW 6 13 3 7 1018.1 1018.1 0.0
22/04:00pm 18.3 14.7 3.0 36 7.1 NE 11 15 6 8 1018.2 1018.2 0.0
22/03:30pm 19.1 16.4 2.5 33 7.7 N 6 11 3 6 1018.4 1018.4 0.0
22/03:00pm 18.7 16.0 2.5 34 7.4 NE 6 13 3 7 1018.6 1018.6 0.0
22/02:30pm 18.5 15.6 2.8 35 7.2 NNE 7 15 4 8 1018.9 1018.9 0.0
22/02:00pm 17.6 14.7 2.4 36 6.9 E 7 11 4 6 1019.3 1019.3 0.0
22/01:30pm 17.3 14.8 3.6 40 6.4 ENE 6 11 3 6 1019.7 1019.7 0.0
22/01:00pm 16.1 13.1 3.9 44 5.6 ESE 9 15 5 8 1020.1 1020.1 0.0
22/12:30pm 15.3 12.7 4.4 48 5.1 ESE 7 11 4 6 1020.8 1020.8 0.0
22/12:00pm 13.4 11.1 4.6 55 4.0 E 6 11 3 6 1021.4 1021.4 0.0
22/11:30am 12.8 10.8 4.3 56 3.9 NNW 4 7 2 4 1022.3 1022.3 0.0
22/11:00am 11.4 10.0 3.4 58 3.5 CALM 0 0 0 0 1023.0 1023.0 0.0
22/10:30am 8.9 6.8 2.0 62 2.9 NW 2 7 1 4 1023.8 1023.9 0.0
22/10:00am 7.9 5.4 3.8 75 1.8 NNE 6 7 3 4 1024.1 1024.2 0.0
22/09:30am 6.3 4.1 3.3 81 1.3 NNE 4 9 2 5 1024.4 1024.5 0.0
22/09:00am 5.3 3.9 3.6 89 0.7 CALM 0 2 0 1 1024.6 1024.7 0.0
22/08:30am 2.3 0.6 1.9 97 0.2 CALM 0 0 0 0 1024.4 1024.5 0.0
22/08:00am 0.5 -1.5 0.2 98 0.1 CALM 0 0 0 0 1024.3 1024.4 0.0
22/07:30am -1.4 -3.6 -1.7 98 0.0 CALM 0 0 0 0 1024.4 1024.5 0.0
22/07:02am -1.9 -4.2 -2.2 98 0.0 CALM 0 0 0 0 1024.3 1024.4 0.0
22/07:00am -1.8 -4.1 -2.1 98 0.0 CALM 0 0 0 0 1024.2 1024.3 0.0
22/06:57am -1.8 -4.1 -2.1 98 0.0 CALM 0 0 0 0 1024.2 1024.3 0.0
22/06:47am -1.8 -4.1 -2.1 98 0.0 CALM 0 0 0 0 1024.1 1024.2 0.0
22/06:43am -1.5 -3.7 -1.8 98 0.0 CALM 0 0 0 0 1024.1 1024.2 0.0
22/06:30am -1.2 -3.4 -1.5 98 0.0 CALM 0 0 0 0 1023.9 1024.0 0.0
22/06:23am -1.2 -3.4 -1.5 98 0.0 CALM 0 0 0 0 1023.9 1024.0 0.0
22/06:05am -1.0 -3.2 -1.3 98 0.1 CALM 0 0 0 0 1023.7 1023.8 0.0
22/06:00am -1.2 -3.4 -1.5 98 0.0 CALM 0 0 0 0 1023.7 1023.8 0.0
22/05:30am -0.7 -2.8 -1.0 98 0.1 CALM 0 0 0 0 1023.5 1023.6 0.0
22/05:00am -0.8 -2.9 -1.1 98 0.1 CALM 0 0 0 0 1023.4 1023.5 0.0
22/04:55am -0.5 -2.6 -0.8 98 0.1 CALM 0 0 0 0 1023.3 1023.4 0.0
22/04:52am -0.6 -2.7 -0.9 98 0.1 CALM 0 0 0 0 1023.3 1023.4 0.0
22/04:30am -0.6 -2.7 -0.9 98 0.1 CALM 0 0 0 0 1023.2 1023.3 0.0
22/04:00am 0.0 -2.0 -0.3 98 0.1 CALM 0 0 0 0 1023.2 1023.3 0.0
22/03:59am 0.1 -1.9 -0.2 98 0.1 CALM 0 0 0 0 1023.2 1023.3 0.0
22/03:42am -0.3 -2.4 -0.6 98 0.1 CALM 0 0 0 0 1023.1 1023.2 0.0
22/03:30am -0.1 -2.1 -0.4 98 0.1 CALM 0 0 0 0 1023.2 1023.3 0.0
22/03:23am 0.2 -1.8 -0.1 98 0.1 CALM 0 0 0 0 1023.2 1023.3 0.0
22/03:07am 0.2 -1.8 -0.1 98 0.1 CALM 0 0 0 0 1023.3 1023.4 0.0
22/03:01am 0.9 -1.0 0.6 98 0.1 CALM 0 0 0 0 1023.3 1023.4 0.0
22/03:00am 1.1 -0.8 0.8 98 0.1 CALM 0 0 0 0 1023.3 1023.4 0.0
22/02:36am 0.4 -1.6 0.1 98 0.1 CALM 0 0 0 0 1023.2 1023.3 0.0
22/02:30am 0.5 -1.5 0.2 98 0.1 CALM 0 0 0 0 1023.2 1023.3 0.0
22/02:04am 1.8 0.0 1.5 98 0.1 CALM 0 0 0 0 1023.1 1023.2 0.0
22/02:00am 1.6 -0.2 1.3 98 0.1 CALM 0 0 0 0 1023.2 1023.3 0.0
22/01:47am 1.7 -0.1 1.4 98 0.1 CALM 0 0 0 0 1023.2 1023.3 0.0
22/01:30am 1.9 0.2 1.6 98 0.1 CALM 0 6 0 3 1023.2 1023.3 0.0
22/01:00am 2.0 0.3 1.6 97 0.2 CALM 0 0 0 0 1023.3 1023.4 0.0
22/12:30am 2.8 0.5 2.5 98 0.1 E 4 7 2 4 1023.4 1023.5 0.0
22/12:00am 2.9 1.3 2.3 96 0.2 CALM 0 0 0 0 1023.7 1023.8 0.0
 
Date/Time
EST
Temp
°C
App
Temp
°C
Dew
Point
°C
Rel
Hum
%
Delta-T
°C
Wind Press
QNH
hPa
Press
MSL
hPa
Rain since
9am
mm
Dir  Spd
km/h
Gust
km/h
Spd
kts
Gust
kts
21/11:30pm 3.3 1.6 2.1 92 0.5 CALM 0 0 0 0 1023.9 1024.0 0.0
21/11:00pm 4.0 2.4 2.7 91 0.5 CALM 0 0 0 0 1024.0 1024.1 0.0
21/10:30pm 4.2 2.7 2.9 91 0.5 CALM 0 0 0 0 1023.9 1024.0 0.0
21/10:00pm 3.3 1.6 1.7 89 0.6 CALM 0 0 0 0 1023.6 1023.7 0.0
21/09:30pm 3.8 2.0 1.4 84 0.9 CALM 0 0 0 0 1023.4 1023.5 0.0
21/09:00pm 4.6 2.6 2.1 84 1.0 W 2 6 1 3 1023.4 1023.5 0.0
21/08:30pm 5.6 3.8 3.3 85 1.0 WSW 2 7 1 4 1023.1 1023.2 0.0
21/08:00pm 6.0 3.3 2.8 80 1.3 WNW 6 7 3 4 1023.0 1023.0 0.0
21/07:30pm 6.9 5.5 3.3 78 1.5 CALM 0 0 0 0 1022.9 1022.9 0.0
21/07:00pm 7.1 5.2 2.8 74 1.8 N 2 9 1 5 1022.6 1022.6 0.0
21/06:30pm 8.3 6.8 3.0 69 2.2 CALM 0 0 0 0 1022.1 1022.1 0.0
21/06:00pm 9.6 6.8 2.2 60 3.1 SSW 6 7 3 4 1021.9 1021.9 0.0
21/05:30pm 12.5 9.6 2.7 51 4.3 WSW 7 9 4 5 1021.8 1021.8 0.0
21/05:00pm 14.1 11.1 2.0 44 5.3 S 7 11 4 6 1021.3 1021.3 0.0
21/04:30pm 15.4 11.7 2.6 42 5.7 SW 11 15 6 8 1021.2 1021.2 0.0
21/04:00pm 16.1 12.4 2.5 40 6.1 SW 11 17 6 9 1021.0 1021.0 0.0
21/03:30pm 16.3 12.2 2.3 39 6.3 SW 13 19 7 10 1020.8 1020.8 0.0
21/03:00pm 16.3 11.4 2.3 39 6.3 SW 17 24 9 13 1020.7 1020.7 0.0
21/02:30pm 16.2 11.7 2.2 39 6.3 SSW 15 20 8 11 1020.6 1020.6 0.0
21/02:00pm 16.3 11.4 2.0 38 6.4 SSW 17 26 9 14 1020.8 1020.8 0.0
21/01:30pm 15.7 10.3 1.1 37 6.4 SSW 19 26 10 14 1020.8 1020.8 0.0
21/01:00pm 15.7 9.8 1.4 38 6.2 S 22 32 12 17 1020.8 1020.8 0.0
21/12:30pm 15.3 9.0 1.8 40 5.9 SSW 24 35 13 19 1021.1 1021.1 0.0
21/12:00pm 15.1 8.0 1.3 39 6.0 SSW 28 35 15 19 1021.4 1021.4 0.0
21/11:30am 15.0 8.8 2.2 42 5.7 SSW 24 33 13 18 1021.6 1021.6 0.0
21/11:00am 15.0 9.3 2.9 44 5.4 SSW 22 35 12 19 1021.8 1021.8 0.0
21/10:30am 14.1 7.6 2.7 46 5.1 SW 26 35 14 19 1021.9 1021.9 0.0
21/10:00am 13.7 8.1 3.2 49 4.7 SSW 22 32 12 17 1021.7 1021.7 0.0
21/09:30am 12.7 7.1 3.4 53 4.1 SW 22 32 12 17 1021.6 1021.6 0.0
21/09:00am 11.4 7.7 4.2 61 3.2 SW 13 19 7 10 1021.3 1021.3 0.0
21/08:30am 8.2 6.6 4.4 77 1.7 SW 2 11 1 6 1021.0 1021.0 0.0
21/08:00am 5.4 4.1 4.1 91 0.5 CALM 0 0 0 0 1021.0 1021.0 0.0
21/07:30am 2.1 0.2 0.8 91 0.5 CALM 0 0 0 0 1020.7 1020.7 0.0
21/07:00am 1.7 -0.6 0.2 90 0.5 W 2 6 1 3 1020.3 1020.3 0.0
21/06:30am 1.3 -1.8 0.4 94 0.3 NW 6 7 3 4 1020.0 1020.0 0.0
21/06:00am 1.6 -0.2 0.9 95 0.3 CALM 0 6 0 3 1019.8 1019.8 0.0
21/05:30am 1.0 -0.9 0.3 95 0.3 CALM 0 0 0 0 1019.2 1019.2 0.0
21/05:00am 0.7 -3.1 -0.6 91 0.5 WSW 9 11 5 6 1018.8 1018.8 0.0
21/04:30am 0.8 -2.0 -0.2 93 0.4 WNW 4 7 2 4 1018.6 1018.6 0.0
21/04:00am 1.6 -0.6 0.9 95 0.3 WSW 2 7 1 4 1018.6 1018.6 0.0
21/03:30am 0.4 -3.1 -1.0 90 0.5 SW 7 9 4 5 1018.6 1018.6 0.0
21/03:00am 1.5 -0.5 -0.3 88 0.6 CALM 0 0 0 0 1018.5 1018.5 0.0
21/02:30am 1.6 -0.4 -0.2 88 0.7 CALM 0 0 0 0 1018.4 1018.4 0.0
21/02:00am 2.1 0.0 -0.5 83 0.9 CALM 0 0 0 0 1018.2 1018.2 0.0
21/01:30am 2.8 0.8 -0.1 81 1.1 CALM 0 0 0 0 1017.8 1017.8 0.0
21/01:00am 4.1 2.2 0.6 78 1.3 CALM 0 0 0 0 1017.7 1017.7 0.0
21/12:30am 3.8 0.2 0.7 80 1.2 N 9 13 5 7 1017.5 1017.5 0.0
21/12:00am 4.7 2.1 0.7 75 1.5 S 4 7 2 4 1017.3 1017.3 0.0
 
Date/Time
EST
Temp
°C
App
Temp
°C
Dew
Point
°C
Rel
Hum
%
Delta-T
°C
Wind Press
QNH
hPa
Press
MSL
hPa
Rain since
9am
mm
Dir  Spd
km/h
Gust
km/h
Spd
kts
Gust
kts
20/11:30pm 5.7 2.1 0.3 68 2.1 SSE 9 11 5 6 1017.3 1017.3 0.0
20/11:00pm 6.9 4.9 -0.1 61 2.7 CALM 0 0 0 0 1017.1 1017.1 0.0
20/10:30pm 8.8 6.4 0.0 54 3.5 E 2 7 1 4 1016.9 1016.9 0.0
20/10:00pm 8.2 4.4 -0.5 54 3.4 E 9 15 5 8 1016.9 1016.9 0.0
20/09:30pm 11.1 6.2 -0.7 44 4.7 SW 15 24 8 13 1016.5 1016.5 0.0
20/09:00pm 11.5 5.3 -0.3 44 4.8 WSW 22 32 12 17 1015.9 1015.9 0.0
20/08:30pm 10.2 5.4 0.0 49 4.1 WSW 15 20 8 11 1016.0 1016.0 0.0
20/08:00pm 11.5 5.7 0.0 45 4.7 WSW 20 32 11 17 1016.1 1016.1 0.0
20/07:30pm 10.5 5.1 1.1 52 3.9 WSW 19 26 10 14 1015.8 1015.8 0.0
20/07:00pm 8.7 4.7 0.2 55 3.4 WSW 11 15 6 8 1015.6 1015.6 0.0
20/06:30pm 10.9 5.7 0.3 48 4.3 W 17 20 9 11 1015.2 1015.2 0.0
20/06:00pm 11.1 5.3 -0.1 46 4.5 W 20 28 11 15 1014.7 1014.7 0.0
20/05:30pm 12.9 5.6 0.0 41 5.3 W 28 37 15 20 1014.3 1014.3 0.0
20/05:00pm 12.8 6.2 -0.1 41 5.3 W 24 35 13 19 1013.9 1013.9 0.0
20/04:30pm 13.7 6.0 -0.3 38 5.8 WSW 30 41 16 22 1013.5 1013.5 0.0
20/04:00pm 14.5 6.3 -1.2 34 6.4 WSW 32 41 17 22 1012.8 1012.8 0.0
20/03:30pm 15.3 8.2 -1.3 32 6.8 WSW 26 41 14 22 1012.6 1012.6 0.0
20/03:06pm 15.6 8.1 -1.4 31 7.0 WSW 28 46 15 25 1012.5 1012.5 0.0
20/03:00pm 15.5 7.0 -1.5 31 7.0 WSW 33 46 18 25 1012.4 1012.4 0.0
20/02:30pm 16.0 7.5 -2.0 29 7.4 WSW 33 44 18 24 1012.3 1012.3 0.0
20/02:00pm 16.7 9.1 -1.9 28 7.7 WSW 28 39 15 21 1012.4 1012.4 0.0
20/01:30pm 17.1 8.9 -1.1 29 7.7 WSW 32 44 17 24 1012.2 1012.2 0.0
20/01:19pm 16.9 8.4 -1.7 28 7.7 WSW 33 56 18 30 1012.1 1012.1 0.0
20/01:00pm 16.8 7.8 -2.8 26 7.9 WSW 35 50 19 27 1012.2 1012.2 0.0
20/12:33pm 17.0 9.5 -1.1 29 7.6 W 28 46 15 25 1012.7 1012.7 0.0
20/12:30pm 16.8 8.9 -1.8 28 7.7 W 30 46 16 25 1012.7 1012.7 0.0
20/12:29pm 16.9 9.4 -1.7 28 7.7 W 28 46 15 25 1012.7 1012.7 0.0
20/12:00pm 17.1 10.2 0.3 32 7.3 WNW 26 37 14 20 1012.9 1012.9 0.0
20/11:30am 16.3 9.3 -0.4 32 7.1 W 26 37 14 20 1013.4 1013.4 0.0
20/11:00am 16.0 9.0 -0.2 33 6.9 W 26 37 14 20 1013.9 1013.9 0.0
20/10:30am 15.5 9.2 -0.7 33 6.8 W 22 33 12 18 1014.2 1014.2 0.0
20/10:00am 14.6 11.4 2.8 45 5.3 NW 9 13 5 7 1014.1 1014.1 0.0
20/09:30am 12.9 9.8 3.6 53 4.2 N 9 13 5 7 1014.0 1014.0 0.0
20/09:00am 11.3 8.9 5.2 66 2.8 NNE 7 9 4 5 1014.2 1014.2 0.0

Other Formats:

Comma delimited format used in spreadsheet applications
http://www.bom.gov.au/fwo/IDN60801/IDN60801.95753.axf

JavaScript Object Notation format (JSON) in row-major order
http://www.bom.gov.au/fwo/IDN60801/IDN60801.95753.json